sensor_id;sensor_type;location;lat;lon;timestamp;P1;durP1;ratioP1;P2;durP2;ratioP2
7334;SDS011;3708;42.632;23.378;2023-05-20T00:00:06;14.00;;;7.63;;
7334;SDS011;3708;42.632;23.378;2023-05-20T00:02:33;10.67;;;7.20;;
7334;SDS011;3708;42.632;23.378;2023-05-20T00:05:00;11.13;;;7.60;;
7334;SDS011;3708;42.632;23.378;2023-05-20T00:07:27;8.80;;;7.53;;
7334;SDS011;3708;42.632;23.378;2023-05-20T00:09:55;12.20;;;7.90;;
7334;SDS011;3708;42.632;23.378;2023-05-20T00:12:22;10.60;;;7.97;;
7334;SDS011;3708;42.632;23.378;2023-05-20T00:14:49;14.57;;;8.40;;
7334;SDS011;3708;42.632;23.378;2023-05-20T00:17:15;10.13;;;7.33;;
7334;SDS011;3708;42.632;23.378;2023-05-20T00:19:43;12.33;;;8.00;;
7334;SDS011;3708;42.632;23.378;2023-05-20T00:22:09;15.53;;;8.13;;
7334;SDS011;3708;42.632;23.378;2023-05-20T00:24:36;15.37;;;8.67;;
7334;SDS011;3708;42.632;23.378;2023-05-20T00:27:05;9.93;;;7.17;;
7334;SDS011;3708;42.632;23.378;2023-05-20T00:29:32;9.83;;;7.77;;
7334;SDS011;3708;42.632;23.378;2023-05-20T00:31:59;10.80;;;7.80;;
7334;SDS011;3708;42.632;23.378;2023-05-20T00:34:26;12.33;;;8.63;;
7334;SDS011;3708;42.632;23.378;2023-05-20T00:36:53;10.43;;;8.50;;
7334;SDS011;3708;42.632;23.378;2023-05-20T00:39:20;9.63;;;7.77;;
7334;SDS011;3708;42.632;23.378;2023-05-20T00:41:46;14.50;;;10.23;;
7334;SDS011;3708;42.632;23.378;2023-05-20T00:44:15;9.03;;;6.67;;
7334;SDS011;3708;42.632;23.378;2023-05-20T00:46:43;11.80;;;7.43;;
7334;SDS011;3708;42.632;23.378;2023-05-20T00:49:10;10.37;;;7.23;;
7334;SDS011;3708;42.632;23.378;2023-05-20T00:51:37;8.97;;;6.63;;
7334;SDS011;3708;42.632;23.378;2023-05-20T00:54:04;11.50;;;6.87;;
7334;SDS011;3708;42.632;23.378;2023-05-20T00:56:30;10.53;;;7.20;;
7334;SDS011;3708;42.632;23.378;2023-05-20T00:58:57;12.20;;;7.60;;
7334;SDS011;3708;42.632;23.378;2023-05-20T01:01:26;9.70;;;6.83;;
7334;SDS011;3708;42.632;23.378;2023-05-20T01:03:53;10.40;;;7.87;;
7334;SDS011;3708;42.632;23.378;2023-05-20T01:06:19;10.67;;;7.77;;
7334;SDS011;3708;42.632;23.378;2023-05-20T01:08:46;14.10;;;8.00;;
7334;SDS011;3708;42.632;23.378;2023-05-20T01:11:15;12.90;;;7.93;;
7334;SDS011;3708;42.632;23.378;2023-05-20T01:13:48;10.90;;;8.03;;
7334;SDS011;3708;42.632;23.378;2023-05-20T01:16:20;11.50;;;7.77;;
7334;SDS011;3708;42.632;23.378;2023-05-20T01:18:52;12.43;;;7.70;;
7334;SDS011;3708;42.632;23.378;2023-05-20T01:21:21;11.73;;;7.47;;
7334;SDS011;3708;42.632;23.378;2023-05-20T01:23:50;11.97;;;7.67;;
7334;SDS011;3708;42.632;23.378;2023-05-20T01:26:16;9.47;;;7.37;;
7334;SDS011;3708;42.632;23.378;2023-05-20T01:28:43;13.07;;;7.27;;
7334;SDS011;3708;42.632;23.378;2023-05-20T01:31:12;16.17;;;7.57;;
7334;SDS011;3708;42.632;23.378;2023-05-20T01:33:43;8.63;;;6.53;;
7334;SDS011;3708;42.632;23.378;2023-05-20T01:36:11;9.57;;;6.27;;
7334;SDS011;3708;42.632;23.378;2023-05-20T01:41:27;11.97;;;7.60;;
7334;SDS011;3708;42.632;23.378;2023-05-20T01:43:55;11.40;;;6.40;;
7334;SDS011;3708;42.632;23.378;2023-05-20T01:46:22;11.20;;;7.03;;
7334;SDS011;3708;42.632;23.378;2023-05-20T01:48:49;10.67;;;7.17;;
7334;SDS011;3708;42.632;23.378;2023-05-20T01:51:16;10.67;;;7.30;;
7334;SDS011;3708;42.632;23.378;2023-05-20T01:53:43;9.00;;;7.00;;
7334;SDS011;3708;42.632;23.378;2023-05-20T01:56:11;9.23;;;6.93;;
7334;SDS011;3708;42.632;23.378;2023-05-20T01:58:38;18.10;;;7.60;;
7334;SDS011;3708;42.632;23.378;2023-05-20T02:01:05;12.23;;;7.20;;
7334;SDS011;3708;42.632;23.378;2023-05-20T02:03:31;13.50;;;8.90;;
7334;SDS011;3708;42.632;23.378;2023-05-20T02:05:58;11.53;;;7.30;;
7334;SDS011;3708;42.632;23.378;2023-05-20T02:08:25;12.97;;;7.03;;
7334;SDS011;3708;42.632;23.378;2023-05-20T02:10:52;10.93;;;7.13;;
7334;SDS011;3708;42.632;23.378;2023-05-20T02:13:20;10.43;;;7.60;;
7334;SDS011;3708;42.632;23.378;2023-05-20T02:15:47;8.93;;;6.37;;
7334;SDS011;3708;42.632;23.378;2023-05-20T02:18:14;9.30;;;6.90;;
7334;SDS011;3708;42.632;23.378;2023-05-20T02:20:42;9.80;;;6.60;;
7334;SDS011;3708;42.632;23.378;2023-05-20T02:23:09;9.70;;;7.07;;
7334;SDS011;3708;42.632;23.378;2023-05-20T02:25:36;8.70;;;6.37;;
7334;SDS011;3708;42.632;23.378;2023-05-20T02:28:03;8.20;;;6.00;;
7334;SDS011;3708;42.632;23.378;2023-05-20T02:30:36;9.80;;;6.83;;
7334;SDS011;3708;42.632;23.378;2023-05-20T02:33:03;8.53;;;6.60;;
7334;SDS011;3708;42.632;23.378;2023-05-20T02:35:31;12.97;;;6.90;;
7334;SDS011;3708;42.632;23.378;2023-05-20T02:37:57;20.73;;;6.73;;
7334;SDS011;3708;42.632;23.378;2023-05-20T02:40:24;12.50;;;6.73;;
7334;SDS011;3708;42.632;23.378;2023-05-20T02:42:51;9.00;;;6.87;;
7334;SDS011;3708;42.632;23.378;2023-05-20T02:45:18;19.00;;;6.30;;
7334;SDS011;3708;42.632;23.378;2023-05-20T02:47:46;8.73;;;6.40;;
7334;SDS011;3708;42.632;23.378;2023-05-20T02:50:13;11.67;;;6.97;;
7334;SDS011;3708;42.632;23.378;2023-05-20T02:52:39;8.40;;;6.87;;
7334;SDS011;3708;42.632;23.378;2023-05-20T02:55:07;11.63;;;7.50;;
7334;SDS011;3708;42.632;23.378;2023-05-20T02:57:34;13.37;;;7.43;;
7334;SDS011;3708;42.632;23.378;2023-05-20T03:00:02;12.13;;;7.13;;
7334;SDS011;3708;42.632;23.378;2023-05-20T03:02:31;8.00;;;6.40;;
7334;SDS011;3708;42.632;23.378;2023-05-20T03:04:59;8.53;;;6.93;;
7334;SDS011;3708;42.632;23.378;2023-05-20T03:07:26;18.27;;;7.80;;
7334;SDS011;3708;42.632;23.378;2023-05-20T03:09:53;11.10;;;6.63;;
7334;SDS011;3708;42.632;23.378;2023-05-20T03:12:20;10.87;;;7.30;;
7334;SDS011;3708;42.632;23.378;2023-05-20T03:14:50;9.43;;;7.43;;
7334;SDS011;3708;42.632;23.378;2023-05-20T03:17:19;9.00;;;6.87;;
7334;SDS011;3708;42.632;23.378;2023-05-20T03:19:46;13.93;;;6.70;;
7334;SDS011;3708;42.632;23.378;2023-05-20T03:22:14;12.23;;;7.20;;
7334;SDS011;3708;42.632;23.378;2023-05-20T03:24:41;11.07;;;7.70;;
7334;SDS011;3708;42.632;23.378;2023-05-20T03:27:08;8.83;;;6.93;;
7334;SDS011;3708;42.632;23.378;2023-05-20T03:29:35;9.97;;;7.30;;
7334;SDS011;3708;42.632;23.378;2023-05-20T03:32:02;8.10;;;6.57;;
7334;SDS011;3708;42.632;23.378;2023-05-20T03:34:29;14.57;;;6.90;;
7334;SDS011;3708;42.632;23.378;2023-05-20T03:36:56;12.33;;;6.87;;
7334;SDS011;3708;42.632;23.378;2023-05-20T03:39:25;11.93;;;7.13;;
7334;SDS011;3708;42.632;23.378;2023-05-20T03:41:52;9.37;;;6.67;;
7334;SDS011;3708;42.632;23.378;2023-05-20T03:44:19;8.83;;;6.33;;
7334;SDS011;3708;42.632;23.378;2023-05-20T03:46:46;12.63;;;7.43;;
7334;SDS011;3708;42.632;23.378;2023-05-20T03:49:12;9.77;;;6.83;;
7334;SDS011;3708;42.632;23.378;2023-05-20T03:51:39;11.90;;;6.80;;
7334;SDS011;3708;42.632;23.378;2023-05-20T03:54:06;8.13;;;6.00;;
7334;SDS011;3708;42.632;23.378;2023-05-20T03:56:34;10.87;;;6.40;;
7334;SDS011;3708;42.632;23.378;2023-05-20T03:59:01;8.77;;;6.13;;
7334;SDS011;3708;42.632;23.378;2023-05-20T04:01:28;6.87;;;5.50;;
7334;SDS011;3708;42.632;23.378;2023-05-20T04:03:56;7.13;;;5.87;;
7334;SDS011;3708;42.632;23.378;2023-05-20T04:06:22;8.30;;;5.73;;
7334;SDS011;3708;42.632;23.378;2023-05-20T04:08:50;7.40;;;5.87;;
7334;SDS011;3708;42.632;23.378;2023-05-20T04:11:18;9.67;;;6.70;;
7334;SDS011;3708;42.632;23.378;2023-05-20T04:13:46;8.17;;;5.83;;
7334;SDS011;3708;42.632;23.378;2023-05-20T04:16:13;10.37;;;6.27;;
7334;SDS011;3708;42.632;23.378;2023-05-20T04:18:40;9.87;;;5.90;;
7334;SDS011;3708;42.632;23.378;2023-05-20T04:21:10;9.93;;;6.37;;
7334;SDS011;3708;42.632;23.378;2023-05-20T04:23:36;10.03;;;6.00;;
7334;SDS011;3708;42.632;23.378;2023-05-20T04:26:03;7.77;;;6.57;;
7334;SDS011;3708;42.632;23.378;2023-05-20T04:28:30;9.97;;;5.90;;
7334;SDS011;3708;42.632;23.378;2023-05-20T04:30:58;13.13;;;5.87;;
7334;SDS011;3708;42.632;23.378;2023-05-20T04:33:26;9.60;;;6.20;;
7334;SDS011;3708;42.632;23.378;2023-05-20T04:35:53;11.37;;;5.97;;
7334;SDS011;3708;42.632;23.378;2023-05-20T04:38:22;11.13;;;6.23;;
7334;SDS011;3708;42.632;23.378;2023-05-20T04:40:53;11.00;;;6.07;;
7334;SDS011;3708;42.632;23.378;2023-05-20T04:43:22;9.53;;;6.67;;
7334;SDS011;3708;42.632;23.378;2023-05-20T04:45:49;15.57;;;6.57;;
7334;SDS011;3708;42.632;23.378;2023-05-20T04:48:18;11.90;;;7.20;;
7334;SDS011;3708;42.632;23.378;2023-05-20T04:50:46;11.57;;;8.40;;
7334;SDS011;3708;42.632;23.378;2023-05-20T04:53:14;8.57;;;6.70;;
7334;SDS011;3708;42.632;23.378;2023-05-20T04:55:41;17.07;;;6.97;;
7334;SDS011;3708;42.632;23.378;2023-05-20T04:58:08;9.47;;;6.77;;
7334;SDS011;3708;42.632;23.378;2023-05-20T05:00:39;12.97;;;6.47;;
7334;SDS011;3708;42.632;23.378;2023-05-20T05:03:07;7.43;;;6.37;;
7334;SDS011;3708;42.632;23.378;2023-05-20T05:05:35;9.67;;;6.57;;
7334;SDS011;3708;42.632;23.378;2023-05-20T05:08:03;17.13;;;7.63;;
7334;SDS011;3708;42.632;23.378;2023-05-20T05:10:30;10.40;;;7.67;;
7334;SDS011;3708;42.632;23.378;2023-05-20T05:12:57;19.73;;;7.83;;
7334;SDS011;3708;42.632;23.378;2023-05-20T05:15:24;8.87;;;6.10;;
7334;SDS011;3708;42.632;23.378;2023-05-20T05:17:51;14.13;;;7.87;;
7334;SDS011;3708;42.632;23.378;2023-05-20T05:20:18;12.10;;;7.00;;
7334;SDS011;3708;42.632;23.378;2023-05-20T05:22:46;9.40;;;6.40;;
7334;SDS011;3708;42.632;23.378;2023-05-20T05:25:14;11.93;;;7.00;;
7334;SDS011;3708;42.632;23.378;2023-05-20T05:27:42;9.63;;;7.53;;
7334;SDS011;3708;42.632;23.378;2023-05-20T05:30:09;9.80;;;6.50;;
7334;SDS011;3708;42.632;23.378;2023-05-20T05:32:36;10.63;;;7.47;;
7334;SDS011;3708;42.632;23.378;2023-05-20T05:35:04;11.83;;;7.20;;
7334;SDS011;3708;42.632;23.378;2023-05-20T05:37:31;16.87;;;7.43;;
7334;SDS011;3708;42.632;23.378;2023-05-20T05:40:01;11.63;;;7.57;;
7334;SDS011;3708;42.632;23.378;2023-05-20T05:42:28;12.37;;;7.50;;
7334;SDS011;3708;42.632;23.378;2023-05-20T05:44:56;12.13;;;6.80;;
7334;SDS011;3708;42.632;23.378;2023-05-20T05:47:24;13.53;;;6.57;;
7334;SDS011;3708;42.632;23.378;2023-05-20T05:49:56;15.20;;;7.47;;
7334;SDS011;3708;42.632;23.378;2023-05-20T05:52:23;12.03;;;6.73;;
7334;SDS011;3708;42.632;23.378;2023-05-20T05:54:50;13.43;;;6.87;;
7334;SDS011;3708;42.632;23.378;2023-05-20T05:57:23;11.00;;;6.70;;
7334;SDS011;3708;42.632;23.378;2023-05-20T05:59:49;8.83;;;6.13;;
7334;SDS011;3708;42.632;23.378;2023-05-20T06:02:16;14.13;;;6.57;;
7334;SDS011;3708;42.632;23.378;2023-05-20T06:04:43;11.50;;;5.87;;
7334;SDS011;3708;42.632;23.378;2023-05-20T06:07:10;7.73;;;5.43;;
7334;SDS011;3708;42.632;23.378;2023-05-20T06:09:37;6.40;;;5.20;;
7334;SDS011;3708;42.632;23.378;2023-05-20T06:12:04;6.60;;;5.20;;
7334;SDS011;3708;42.632;23.378;2023-05-20T06:14:33;11.97;;;5.40;;
7334;SDS011;3708;42.632;23.378;2023-05-20T06:17:00;5.70;;;4.97;;
7334;SDS011;3708;42.632;23.378;2023-05-20T06:19:27;9.43;;;5.13;;
7334;SDS011;3708;42.632;23.378;2023-05-20T06:21:55;6.30;;;4.73;;
7334;SDS011;3708;42.632;23.378;2023-05-20T06:24:22;6.90;;;4.87;;
7334;SDS011;3708;42.632;23.378;2023-05-20T06:26:48;8.60;;;5.73;;
7334;SDS011;3708;42.632;23.378;2023-05-20T06:29:16;6.40;;;5.40;;
7334;SDS011;3708;42.632;23.378;2023-05-20T06:31:44;13.00;;;4.97;;
7334;SDS011;3708;42.632;23.378;2023-05-20T06:34:11;11.80;;;5.33;;
7334;SDS011;3708;42.632;23.378;2023-05-20T06:36:38;6.23;;;5.03;;
7334;SDS011;3708;42.632;23.378;2023-05-20T06:39:05;8.50;;;5.00;;
7334;SDS011;3708;42.632;23.378;2023-05-20T06:41:36;8.13;;;4.80;;
7334;SDS011;3708;42.632;23.378;2023-05-20T06:44:04;7.37;;;5.10;;
7334;SDS011;3708;42.632;23.378;2023-05-20T06:46:31;9.53;;;5.00;;
7334;SDS011;3708;42.632;23.378;2023-05-20T06:48:59;7.97;;;4.73;;
7334;SDS011;3708;42.632;23.378;2023-05-20T06:51:27;5.63;;;4.93;;
7334;SDS011;3708;42.632;23.378;2023-05-20T06:53:54;6.30;;;4.70;;
7334;SDS011;3708;42.632;23.378;2023-05-20T06:56:20;7.68;;;5.28;;
7334;SDS011;3708;42.632;23.378;2023-05-20T06:58:47;7.40;;;4.90;;
7334;SDS011;3708;42.632;23.378;2023-05-20T07:01:14;8.23;;;5.33;;
7334;SDS011;3708;42.632;23.378;2023-05-20T07:03:41;7.27;;;5.63;;
7334;SDS011;3708;42.632;23.378;2023-05-20T07:06:09;9.63;;;5.33;;
7334;SDS011;3708;42.632;23.378;2023-05-20T07:08:36;14.27;;;5.57;;
7334;SDS011;3708;42.632;23.378;2023-05-20T07:11:03;8.37;;;4.87;;
7334;SDS011;3708;42.632;23.378;2023-05-20T07:13:30;8.63;;;5.17;;
7334;SDS011;3708;42.632;23.378;2023-05-20T07:15:56;13.53;;;5.97;;
7334;SDS011;3708;42.632;23.378;2023-05-20T07:18:23;7.67;;;5.17;;
7334;SDS011;3708;42.632;23.378;2023-05-20T07:20:50;7.27;;;4.97;;
7334;SDS011;3708;42.632;23.378;2023-05-20T07:23:19;9.10;;;4.88;;
7334;SDS011;3708;42.632;23.378;2023-05-20T07:25:45;8.18;;;5.60;;
7334;SDS011;3708;42.632;23.378;2023-05-20T07:28:14;12.05;;;5.57;;
7334;SDS011;3708;42.632;23.378;2023-05-20T07:30:41;12.70;;;5.35;;
7334;SDS011;3708;42.632;23.378;2023-05-20T07:33:10;7.38;;;4.97;;
7334;SDS011;3708;42.632;23.378;2023-05-20T07:35:37;6.80;;;4.90;;
7334;SDS011;3708;42.632;23.378;2023-05-20T07:38:04;7.28;;;5.03;;
7334;SDS011;3708;42.632;23.378;2023-05-20T07:40:32;6.25;;;5.10;;
7334;SDS011;3708;42.632;23.378;2023-05-20T07:43:00;7.78;;;5.78;;
7334;SDS011;3708;42.632;23.378;2023-05-20T07:45:27;8.77;;;5.30;;
7334;SDS011;3708;42.632;23.378;2023-05-20T07:47:54;7.72;;;5.13;;
7334;SDS011;3708;42.632;23.378;2023-05-20T07:50:21;7.75;;;4.97;;
7334;SDS011;3708;42.632;23.378;2023-05-20T07:52:48;8.70;;;5.82;;
7334;SDS011;3708;42.632;23.378;2023-05-20T07:55:15;6.72;;;5.18;;
7334;SDS011;3708;42.632;23.378;2023-05-20T07:57:44;7.97;;;5.50;;
7334;SDS011;3708;42.632;23.378;2023-05-20T08:00:11;12.05;;;5.40;;
7334;SDS011;3708;42.632;23.378;2023-05-20T08:02:38;5.90;;;4.97;;
7334;SDS011;3708;42.632;23.378;2023-05-20T08:05:06;6.60;;;4.85;;
7334;SDS011;3708;42.632;23.378;2023-05-20T08:07:33;10.00;;;5.20;;
7334;SDS011;3708;42.632;23.378;2023-05-20T08:10:00;9.18;;;5.30;;
7334;SDS011;3708;42.632;23.378;2023-05-20T08:12:27;6.63;;;4.90;;
7334;SDS011;3708;42.632;23.378;2023-05-20T08:14:55;7.60;;;5.38;;
7334;SDS011;3708;42.632;23.378;2023-05-20T08:17:22;6.45;;;5.75;;
7334;SDS011;3708;42.632;23.378;2023-05-20T08:19:49;9.00;;;5.55;;
7334;SDS011;3708;42.632;23.378;2023-05-20T08:22:15;8.50;;;5.60;;
7334;SDS011;3708;42.632;23.378;2023-05-20T08:24:42;6.93;;;5.65;;
7334;SDS011;3708;42.632;23.378;2023-05-20T08:27:09;6.70;;;5.40;;
7334;SDS011;3708;42.632;23.378;2023-05-20T08:29:36;7.88;;;6.13;;
7334;SDS011;3708;42.632;23.378;2023-05-20T08:32:04;7.32;;;6.10;;
7334;SDS011;3708;42.632;23.378;2023-05-20T08:34:31;7.00;;;4.75;;
7334;SDS011;3708;42.632;23.378;2023-05-20T08:36:58;8.07;;;4.97;;
7334;SDS011;3708;42.632;23.378;2023-05-20T08:39:25;11.82;;;6.03;;
7334;SDS011;3708;42.632;23.378;2023-05-20T08:41:52;6.40;;;5.35;;
7334;SDS011;3708;42.632;23.378;2023-05-20T08:44:19;7.57;;;5.38;;
7334;SDS011;3708;42.632;23.378;2023-05-20T08:46:46;9.43;;;6.05;;
7334;SDS011;3708;42.632;23.378;2023-05-20T08:49:15;7.20;;;5.18;;
7334;SDS011;3708;42.632;23.378;2023-05-20T08:51:42;8.95;;;5.55;;
7334;SDS011;3708;42.632;23.378;2023-05-20T08:54:10;12.73;;;7.43;;
7334;SDS011;3708;42.632;23.378;2023-05-20T08:56:38;11.18;;;7.07;;
7334;SDS011;3708;42.632;23.378;2023-05-20T08:59:07;12.15;;;7.38;;
7334;SDS011;3708;42.632;23.378;2023-05-20T09:01:35;8.43;;;6.38;;
7334;SDS011;3708;42.632;23.378;2023-05-20T09:04:07;7.72;;;6.68;;
7334;SDS011;3708;42.632;23.378;2023-05-20T09:06:42;7.57;;;4.97;;
7334;SDS011;3708;42.632;23.378;2023-05-20T09:09:09;8.35;;;5.70;;
7334;SDS011;3708;42.632;23.378;2023-05-20T09:11:37;6.90;;;6.05;;
7334;SDS011;3708;42.632;23.378;2023-05-20T09:14:05;11.75;;;5.90;;
7334;SDS011;3708;42.632;23.378;2023-05-20T09:16:33;7.60;;;5.68;;
7334;SDS011;3708;42.632;23.378;2023-05-20T09:19:00;7.75;;;5.88;;
7334;SDS011;3708;42.632;23.378;2023-05-20T09:21:27;7.82;;;6.38;;
7334;SDS011;3708;42.632;23.378;2023-05-20T09:23:56;9.35;;;7.00;;
7334;SDS011;3708;42.632;23.378;2023-05-20T09:26:27;9.07;;;5.50;;
7334;SDS011;3708;42.632;23.378;2023-05-20T09:28:54;6.43;;;5.60;;
7334;SDS011;3708;42.632;23.378;2023-05-20T09:31:24;12.32;;;5.90;;
7334;SDS011;3708;42.632;23.378;2023-05-20T09:33:53;9.77;;;6.50;;
7334;SDS011;3708;42.632;23.378;2023-05-20T09:36:21;8.13;;;5.45;;
7334;SDS011;3708;42.632;23.378;2023-05-20T09:38:49;34.33;;;6.53;;
7334;SDS011;3708;42.632;23.378;2023-05-20T09:41:21;6.15;;;5.55;;
7334;SDS011;3708;42.632;23.378;2023-05-20T09:43:50;10.27;;;5.60;;
7334;SDS011;3708;42.632;23.378;2023-05-20T09:46:19;9.52;;;5.20;;
7334;SDS011;3708;42.632;23.378;2023-05-20T09:48:46;6.68;;;5.20;;
7334;SDS011;3708;42.632;23.378;2023-05-20T09:51:13;7.88;;;5.35;;
7334;SDS011;3708;42.632;23.378;2023-05-20T09:53:41;11.35;;;5.93;;
7334;SDS011;3708;42.632;23.378;2023-05-20T09:56:08;13.48;;;5.70;;
7334;SDS011;3708;42.632;23.378;2023-05-20T09:58:38;9.35;;;5.35;;
7334;SDS011;3708;42.632;23.378;2023-05-20T10:01:07;8.70;;;5.88;;
7334;SDS011;3708;42.632;23.378;2023-05-20T10:03:34;6.32;;;5.70;;
7334;SDS011;3708;42.632;23.378;2023-05-20T10:06:09;7.47;;;5.50;;
7334;SDS011;3708;42.632;23.378;2023-05-20T10:08:57;8.20;;;5.38;;
7334;SDS011;3708;42.632;23.378;2023-05-20T10:11:37;6.63;;;5.68;;
7334;SDS011;3708;42.632;23.378;2023-05-20T10:14:27;7.20;;;4.88;;
7334;SDS011;3708;42.632;23.378;2023-05-20T10:17:04;8.23;;;5.28;;
7334;SDS011;3708;42.632;23.378;2023-05-20T10:19:36;11.75;;;6.32;;
7334;SDS011;3708;42.632;23.378;2023-05-20T10:22:03;6.20;;;5.10;;
7334;SDS011;3708;42.632;23.378;2023-05-20T10:24:31;8.60;;;4.53;;
7334;SDS011;3708;42.632;23.378;2023-05-20T10:27:00;7.78;;;5.60;;
7334;SDS011;3708;42.632;23.378;2023-05-20T10:29:40;8.77;;;4.68;;
7334;SDS011;3708;42.632;23.378;2023-05-20T10:32:08;9.50;;;4.55;;
7334;SDS011;3708;42.632;23.378;2023-05-20T10:34:43;6.10;;;4.35;;
7334;SDS011;3708;42.632;23.378;2023-05-20T10:37:19;8.65;;;4.55;;
7334;SDS011;3708;42.632;23.378;2023-05-20T10:39:50;6.20;;;3.97;;
7334;SDS011;3708;42.632;23.378;2023-05-20T10:42:26;5.82;;;4.05;;
7334;SDS011;3708;42.632;23.378;2023-05-20T10:44:55;7.75;;;4.38;;
7334;SDS011;3708;42.632;23.378;2023-05-20T10:47:22;6.00;;;4.40;;
7334;SDS011;3708;42.632;23.378;2023-05-20T10:49:50;6.20;;;4.28;;
7334;SDS011;3708;42.632;23.378;2023-05-20T10:52:17;4.63;;;4.13;;
7334;SDS011;3708;42.632;23.378;2023-05-20T10:54:45;6.68;;;4.18;;
7334;SDS011;3708;42.632;23.378;2023-05-20T10:57:13;9.57;;;4.50;;
7334;SDS011;3708;42.632;23.378;2023-05-20T10:59:40;5.72;;;4.22;;
7334;SDS011;3708;42.632;23.378;2023-05-20T11:02:09;9.52;;;4.22;;
7334;SDS011;3708;42.632;23.378;2023-05-20T11:04:37;4.53;;;3.78;;
7334;SDS011;3708;42.632;23.378;2023-05-20T11:07:05;5.07;;;4.35;;
7334;SDS011;3708;42.632;23.378;2023-05-20T11:09:32;5.93;;;4.30;;
7334;SDS011;3708;42.632;23.378;2023-05-20T11:12:00;7.35;;;4.90;;
7334;SDS011;3708;42.632;23.378;2023-05-20T11:14:28;7.53;;;4.30;;
7334;SDS011;3708;42.632;23.378;2023-05-20T11:16:55;5.88;;;4.50;;
7334;SDS011;3708;42.632;23.378;2023-05-20T11:19:24;10.15;;;5.28;;
7334;SDS011;3708;42.632;23.378;2023-05-20T11:21:52;5.68;;;4.78;;
7334;SDS011;3708;42.632;23.378;2023-05-20T11:24:23;6.13;;;4.80;;
7334;SDS011;3708;42.632;23.378;2023-05-20T11:26:51;7.13;;;5.10;;
7334;SDS011;3708;42.632;23.378;2023-05-20T11:29:19;9.63;;;5.03;;
7334;SDS011;3708;42.632;23.378;2023-05-20T11:31:46;7.78;;;4.35;;
7334;SDS011;3708;42.632;23.378;2023-05-20T11:34:15;8.25;;;5.25;;
7334;SDS011;3708;42.632;23.378;2023-05-20T11:36:43;8.55;;;4.90;;
7334;SDS011;3708;42.632;23.378;2023-05-20T11:39:10;5.53;;;4.32;;
7334;SDS011;3708;42.632;23.378;2023-05-20T11:41:40;15.07;;;4.60;;
7334;SDS011;3708;42.632;23.378;2023-05-20T11:44:08;6.22;;;4.40;;
7334;SDS011;3708;42.632;23.378;2023-05-20T11:46:40;6.85;;;4.60;;
7334;SDS011;3708;42.632;23.378;2023-05-20T11:49:08;6.75;;;4.15;;
7334;SDS011;3708;42.632;23.378;2023-05-20T11:51:35;6.53;;;4.53;;
7334;SDS011;3708;42.632;23.378;2023-05-20T11:54:05;6.30;;;4.45;;
7334;SDS011;3708;42.632;23.378;2023-05-20T11:56:33;6.75;;;4.38;;
7334;SDS011;3708;42.632;23.378;2023-05-20T11:59:02;6.75;;;4.40;;
7334;SDS011;3708;42.632;23.378;2023-05-20T12:01:30;6.80;;;4.47;;
7334;SDS011;3708;42.632;23.378;2023-05-20T12:04:02;6.70;;;4.30;;
7334;SDS011;3708;42.632;23.378;2023-05-20T12:06:29;10.00;;;4.45;;
7334;SDS011;3708;42.632;23.378;2023-05-20T12:08:57;6.40;;;4.38;;
7334;SDS011;3708;42.632;23.378;2023-05-20T12:11:28;5.57;;;4.28;;
7334;SDS011;3708;42.632;23.378;2023-05-20T12:13:56;8.90;;;5.00;;
7334;SDS011;3708;42.632;23.378;2023-05-20T12:16:23;6.35;;;4.20;;
7334;SDS011;3708;42.632;23.378;2023-05-20T12:18:50;8.25;;;4.68;;
7334;SDS011;3708;42.632;23.378;2023-05-20T12:21:16;5.60;;;4.40;;
7334;SDS011;3708;42.632;23.378;2023-05-20T12:23:43;7.85;;;3.97;;
7334;SDS011;3708;42.632;23.378;2023-05-20T12:26:10;7.85;;;3.83;;
7334;SDS011;3708;42.632;23.378;2023-05-20T12:28:38;8.33;;;3.20;;
7334;SDS011;3708;42.632;23.378;2023-05-20T12:31:05;5.93;;;3.63;;
7334;SDS011;3708;42.632;23.378;2023-05-20T12:33:32;8.97;;;4.70;;
7334;SDS011;3708;42.632;23.378;2023-05-20T12:35:59;6.27;;;3.90;;
7334;SDS011;3708;42.632;23.378;2023-05-20T12:38:26;8.27;;;3.90;;
7334;SDS011;3708;42.632;23.378;2023-05-20T12:40:53;5.57;;;3.83;;
7334;SDS011;3708;42.632;23.378;2023-05-20T12:43:20;5.00;;;4.07;;
7334;SDS011;3708;42.632;23.378;2023-05-20T12:45:49;5.97;;;3.87;;
7334;SDS011;3708;42.632;23.378;2023-05-20T12:48:16;7.60;;;3.60;;
7334;SDS011;3708;42.632;23.378;2023-05-20T12:50:43;5.80;;;3.40;;
7334;SDS011;3708;42.632;23.378;2023-05-20T12:53:10;6.50;;;3.47;;
7334;SDS011;3708;42.632;23.378;2023-05-20T12:55:38;4.07;;;3.30;;
7334;SDS011;3708;42.632;23.378;2023-05-20T12:58:05;5.40;;;3.90;;
7334;SDS011;3708;42.632;23.378;2023-05-20T13:00:33;4.63;;;4.07;;
7334;SDS011;3708;42.632;23.378;2023-05-20T13:03:01;5.43;;;4.00;;
7334;SDS011;3708;42.632;23.378;2023-05-20T13:05:28;6.53;;;3.80;;
7334;SDS011;3708;42.632;23.378;2023-05-20T13:07:55;7.15;;;4.28;;
7334;SDS011;3708;42.632;23.378;2023-05-20T13:10:22;5.72;;;3.30;;
7334;SDS011;3708;42.632;23.378;2023-05-20T13:12:49;3.88;;;3.35;;
7334;SDS011;3708;42.632;23.378;2023-05-20T13:15:16;4.00;;;3.10;;
7334;SDS011;3708;42.632;23.378;2023-05-20T13:17:43;5.03;;;3.90;;
7334;SDS011;3708;42.632;23.378;2023-05-20T13:20:11;6.57;;;3.45;;
7334;SDS011;3708;42.632;23.378;2023-05-20T13:22:39;3.75;;;3.08;;
7334;SDS011;3708;42.632;23.378;2023-05-20T13:25:06;4.57;;;3.47;;
7334;SDS011;3708;42.632;23.378;2023-05-20T13:27:33;3.95;;;3.55;;
7334;SDS011;3708;42.632;23.378;2023-05-20T13:30:00;5.13;;;4.05;;
7334;SDS011;3708;42.632;23.378;2023-05-20T13:32:28;5.95;;;3.38;;
7334;SDS011;3708;42.632;23.378;2023-05-20T13:34:55;4.82;;;3.67;;
7334;SDS011;3708;42.632;23.378;2023-05-20T13:37:25;5.53;;;3.70;;
7334;SDS011;3708;42.632;23.378;2023-05-20T13:39:52;5.82;;;3.58;;
7334;SDS011;3708;42.632;23.378;2023-05-20T13:42:20;5.63;;;3.60;;
7334;SDS011;3708;42.632;23.378;2023-05-20T13:44:47;4.90;;;3.90;;
7334;SDS011;3708;42.632;23.378;2023-05-20T13:47:13;5.03;;;3.78;;
7334;SDS011;3708;42.632;23.378;2023-05-20T13:49:40;4.20;;;3.63;;
7334;SDS011;3708;42.632;23.378;2023-05-20T13:52:07;4.93;;;3.58;;
7334;SDS011;3708;42.632;23.378;2023-05-20T13:54:35;4.82;;;3.42;;
7334;SDS011;3708;42.632;23.378;2023-05-20T13:57:02;6.70;;;3.70;;
7334;SDS011;3708;42.632;23.378;2023-05-20T13:59:31;4.97;;;3.13;;
7334;SDS011;3708;42.632;23.378;2023-05-20T14:01:58;4.22;;;3.80;;
7334;SDS011;3708;42.632;23.378;2023-05-20T14:04:26;8.05;;;4.45;;
7334;SDS011;3708;42.632;23.378;2023-05-20T14:06:52;6.10;;;4.05;;
7334;SDS011;3708;42.632;23.378;2023-05-20T14:09:19;4.05;;;3.15;;
7334;SDS011;3708;42.632;23.378;2023-05-20T14:11:48;6.93;;;4.43;;
7334;SDS011;3708;42.632;23.378;2023-05-20T14:14:15;5.00;;;3.58;;
7334;SDS011;3708;42.632;23.378;2023-05-20T14:16:42;7.38;;;3.92;;
7334;SDS011;3708;42.632;23.378;2023-05-20T14:19:09;5.10;;;4.07;;
7334;SDS011;3708;42.632;23.378;2023-05-20T14:21:36;4.65;;;4.10;;
7334;SDS011;3708;42.632;23.378;2023-05-20T14:24:03;4.50;;;4.03;;
7334;SDS011;3708;42.632;23.378;2023-05-20T14:26:30;5.55;;;4.32;;
7334;SDS011;3708;42.632;23.378;2023-05-20T14:29:17;8.05;;;4.53;;
7334;SDS011;3708;42.632;23.378;2023-05-20T14:31:44;4.53;;;4.13;;
7334;SDS011;3708;42.632;23.378;2023-05-20T14:34:11;8.27;;;4.80;;
7334;SDS011;3708;42.632;23.378;2023-05-20T14:36:37;8.82;;;4.78;;
7334;SDS011;3708;42.632;23.378;2023-05-20T14:39:05;7.05;;;4.03;;
7334;SDS011;3708;42.632;23.378;2023-05-20T14:41:32;5.95;;;4.22;;
7334;SDS011;3708;42.632;23.378;2023-05-20T14:43:59;5.65;;;4.20;;
7334;SDS011;3708;42.632;23.378;2023-05-20T14:46:27;7.60;;;4.85;;
7334;SDS011;3708;42.632;23.378;2023-05-20T14:48:54;9.48;;;5.38;;
7334;SDS011;3708;42.632;23.378;2023-05-20T14:51:20;6.78;;;4.63;;
7334;SDS011;3708;42.632;23.378;2023-05-20T14:53:47;10.30;;;5.10;;
7334;SDS011;3708;42.632;23.378;2023-05-20T14:56:14;7.28;;;4.60;;
7334;SDS011;3708;42.632;23.378;2023-05-20T14:58:41;7.38;;;5.00;;
7334;SDS011;3708;42.632;23.378;2023-05-20T15:01:09;6.25;;;4.28;;
7334;SDS011;3708;42.632;23.378;2023-05-20T15:03:37;6.32;;;4.85;;